Salinas, CA (93907)

7:11 AM PDT on September 04, 2015 (GMT -0700)
Prunedale | | Change Station
CLOSE
Current Station
Personal Weather Station
Location: Salinas, CA
Elevation: 236 ft
Nearby Weather Stations

Elev 236 ft 36.81 °N, 121.68 °W | Updated 53 seconds ago

Overcast
Overcast
56.7 °F
Feels Like 56.7 °F
N
0.0
Wind Variable Wind from SSE
Gusts 2.0 mph

Today
High -- | Low -- °F
--% Chance of Precip.
Yesterday
High -- | Low -- °F
Precip. -- in
6:40 AM 7:30 PM
Waning Gibbous, 59% visible
Pressure 29.93 in
Visibility 8.0 miles
Clouds Overcast 1900 ft
Dew Point 50 °F
Humidity 77%
Rainfall 0.00 in
Snow Depth Not available.
UV 0 out of 12
Pollen 8.30 out of 12
Air Quality Not available.
Flu Activity Not available.
METAR KSNS 041353Z 25007KT 8SM OVC019 15/10 A2990 RMK AO2 SLP133 T01500100
Pressure 29.93 in
Visibility 8.0 miles
Clouds Overcast 1900 ft
Dew Point 50 °F
Humidity 77%
Rainfall 0.00 in
Snow Depth Not available.
UV 0 out of 12
Pollen 8.30 out of 12
Air Quality Not available.
Flu Activity Not available.
METAR KSNS 041353Z 25007KT 8SM OVC019 15/10 A2990 RMK AO2 SLP133 T01500100

10-Day Weather Forecast

×

Almanac

Astronomy

Sep. 04, 2015 Rise Set
Actual Time
Civil Twilight
Nautical Twilight
Astronomical Twilight
Moon
Length of Visible Light
Length of Day
Tomorrow will be .
, % of the Moon is Illuminated

Today's Extremes

State Highs State Lows

Community

WunderPhotos

Upload Photos

1,852,184 photos uploaded!

WunderBlogs® & News

Nearby

Air Quality

  Air Quality AQ Index Pollutant
Not available.

Snow Depth

Station Depth Elevation

Earthquake Activity

City Distance Mag. Time & Date
Minimum magnitude displayed is 2.5.

Coastal Water Temperatures

Place Temperature

Stations

Nearby Weather Stations

Station Location Temp. Windchill Dew Point Humidity Wind Precip. Elev Updated Type